Latest Weather Observations for kunanyi / Mount Wellington

IDT60801

Issued at 9:02 pm EST Saturday 29 April 2017 (issued every 30 minutes, with the page automatically refreshed every 10 minutes)

About weather observations | Map of weather stations | Latest weather observations for TAS | Other Formats
Station Details ID: 094087 Name: KUNANYI (MOUNT WELLINGTON PINNACLE) Lat: -42.90 Lon: 147.24 Height: 1260.47 m
Data from the previous 72 hours. | See also: Recent months at kunanyi / Mount Wellington
Date/Time
EST
Temp
°C
App
Temp
°C
Dew
Point
°C
Rel
Hum
%
Delta-T
°C
Wind Press
QNH
hPa
Press
MSL
hPa
Rain since
9am
mm
Dir  Spd
km/h
Gust
km/h
Spd
kts
Gust
kts
29/08:30pm 3.7 -1.0 3.4 98 0.1 W 17 20 9 11 - - 0.0
29/08:00pm 3.8 -0.9 3.4 97 0.2 WNW 17 22 9 12 - - 0.0
29/07:30pm 3.9 -0.4 3.3 96 0.3 WNW 15 20 8 11 - - 0.0
29/07:00pm 3.6 -0.4 2.7 94 0.4 WSW 13 15 7 8 - - 0.0
29/06:30pm 4.1 0.6 3.7 97 0.2 WSW 11 15 6 8 - - 0.0
29/06:00pm 3.8 0.2 3.1 95 0.3 W 11 17 6 9 - - 0.0
29/05:30pm 4.3 0.8 3.3 93 0.4 W 11 17 6 9 - - 0.0
29/05:00pm 4.4 -0.8 3.8 96 0.3 W 20 26 11 14 - - 0.0
29/04:30pm 4.8 -0.3 4.1 95 0.3 WSW 20 26 11 14 - - 0.0
29/04:00pm 5.4 0.5 4.1 91 0.6 WSW 19 24 10 13 - - 0.0
29/03:30pm 6.1 1.2 4.1 87 0.9 WSW 19 24 10 13 - - 0.0
29/03:00pm 6.4 0.9 4.2 86 1.0 WSW 22 26 12 14 - - 0.0
29/02:30pm 7.0 2.9 4.5 84 1.2 WSW 15 22 8 12 - - 0.0
29/02:00pm 7.1 2.6 4.2 82 1.4 SW 17 24 9 13 - - 0.0
29/01:30pm 7.0 1.9 4.1 82 1.4 WSW 20 30 11 16 - - 0.0
29/01:00pm 6.3 -0.7 4.0 85 1.1 WSW 30 37 16 20 - - 0.0
29/12:30pm 6.2 0.4 4.2 87 0.9 WSW 24 35 13 19 - - 0.0
29/12:00pm 5.4 -0.8 4.2 92 0.6 WSW 26 35 14 19 - - 0.0
29/11:30am 5.3 -0.9 4.1 92 0.6 WSW 26 39 14 21 - - 0.0
29/11:00am 5.1 -3.2 4.1 93 0.5 WSW 37 57 20 31 - - 0.0
29/10:59am 5.2 -3.1 4.0 92 0.5 WSW 37 57 20 31 - - 0.0
29/10:56am 5.4 -3.3 4.2 92 0.6 SW 39 57 21 31 - - 0.0
29/10:34am 4.2 -1.3 3.8 97 0.2 SSW 22 46 12 25 - - 0.0
29/10:30am 4.3 -1.2 3.9 97 0.2 S 22 37 12 20 - - 0.0
29/10:23am 4.2 -2.9 3.8 97 0.2 SSW 30 43 16 23 - - 0.0
29/10:07am 4.1 -5.1 3.5 96 0.3 SW 41 59 22 32 - - 0.0
29/10:00am 4.2 -5.6 3.6 96 0.3 SW 44 59 24 32 - - 0.0
29/09:31am 4.1 -5.0 3.8 98 0.1 SW 41 61 22 33 - - 0.0
29/09:30am 4.3 -4.8 4.0 98 0.1 SW 41 57 22 31 - - 0.0
29/09:25am 3.9 -5.9 3.6 98 0.1 SW 44 63 24 34 - - 0.0
29/09:00am 3.7 -6.8 3.4 98 0.1 SW 48 57 26 31 - - 0.0
29/08:30am 3.4 -8.9 3.1 98 0.1 SW 57 76 31 41 - - 0.0
29/08:00am 3.6 -9.4 3.3 98 0.1 SW 61 74 33 40 - - 0.0
29/07:30am 3.9 -7.8 3.6 98 0.1 SW 54 74 29 40 - - 0.0
29/07:05am 4.1 -5.6 3.7 97 0.2 SW 44 65 24 35 - - 0.0
29/07:00am 4.0 -5.8 3.6 97 0.2 SW 44 61 24 33 - - 0.0
29/06:53am 4.0 -5.2 3.6 97 0.2 SW 41 61 22 33 - - 0.0
29/06:44am 4.0 -6.1 3.6 97 0.2 SW 46 65 25 35 - - 0.0
29/06:30am 4.0 -8.3 3.4 96 0.3 WSW 57 70 31 38 - - 0.0
29/06:01am 4.0 -7.7 3.4 96 0.3 WSW 54 72 29 39 - - 0.0
29/06:00am 4.0 -7.7 3.4 96 0.3 WSW 54 67 29 36 - - 0.0
29/05:30am 4.1 -6.1 3.4 95 0.3 WSW 46 65 25 35 - - 0.0
29/05:21am 4.1 -5.1 3.4 95 0.3 SW 41 61 22 33 - - 0.0
29/05:19am 4.1 -5.7 3.4 95 0.3 SW 44 67 24 36 - - 0.0
29/05:00am 4.2 -6.7 3.5 95 0.3 WSW 50 69 27 37 - - 0.0
29/04:30am 4.1 -6.8 3.8 98 0.1 WSW 50 72 27 39 - - 0.0
29/04:04am 4.0 -7.3 3.6 97 0.2 WSW 52 70 28 38 - - 0.0
29/04:00am 4.0 -7.7 3.6 97 0.2 WSW 54 70 29 38 - - 0.0
29/03:40am 4.0 -6.9 3.6 97 0.2 WSW 50 74 27 40 - - 0.0
29/03:30am 3.9 -6.3 3.3 96 0.3 WSW 46 61 25 33 - - 0.0
29/03:00am 3.7 -5.6 2.7 93 0.4 WSW 41 63 22 34 - - 0.0
29/02:33am 4.2 -3.2 3.8 97 0.2 WSW 32 54 17 29 - - 0.0
29/02:30am 4.3 -3.1 3.9 97 0.2 WSW 32 44 17 24 - - 0.0
29/02:00am 4.6 -5.4 4.2 97 0.2 WSW 46 65 25 35 - - 0.0
29/01:41am 5.0 -4.4 4.6 97 0.2 WSW 43 61 23 33 - - 0.0
29/01:30am 5.3 -4.2 4.9 97 0.2 WSW 44 61 24 33 - - 0.0
29/01:11am 5.6 -3.7 4.9 95 0.3 WSW 43 65 23 35 - - 0.0
29/01:00am 5.6 -3.9 4.7 94 0.4 WSW 44 61 24 33 - - 0.0
29/12:30am 5.8 -4.0 5.1 95 0.3 WSW 46 69 25 37 - - 0.0
29/12:08am 5.8 -3.4 5.4 97 0.2 WSW 43 61 23 33 - - 0.0
29/12:00am 5.9 -4.3 5.3 96 0.3 WSW 48 69 26 37 - - 0.0
 
Date/Time
EST
Temp
°C
App
Temp
°C
Dew
Point
°C
Rel
Hum
%
Delta-T
°C
Wind Press
QNH
hPa
Press
MSL
hPa
Rain since
9am
mm
Dir  Spd
km/h
Gust
km/h
Spd
kts
Gust
kts
28/11:59pm 5.9 -4.7 5.3 96 0.3 WSW 50 70 27 38 - - 0.0
28/11:30pm 6.0 -7.6 4.6 91 0.7 WSW 65 83 35 45 - - 0.0
28/11:00pm 5.8 -8.1 4.8 93 0.5 WSW 67 91 36 49 - - 0.0
28/10:30pm 6.1 -7.7 5.1 93 0.5 WSW 67 98 36 53 - - 0.0
28/10:00pm 6.2 -6.5 5.2 93 0.5 WSW 61 80 33 43 - - 0.0
28/09:30pm 6.1 -6.6 5.1 93 0.5 WSW 61 83 33 45 - - 0.0
28/09:00pm 6.2 -6.4 5.5 95 0.3 WSW 61 85 33 46 - - 0.0
28/08:30pm 6.1 -7.2 5.7 97 0.2 WSW 65 85 35 46 - - 0.0
28/08:00pm 6.0 -8.7 5.3 95 0.3 WSW 72 95 39 51 - - 0.0
28/07:30pm 6.1 -9.4 5.4 95 0.3 W 76 100 41 54 - - 0.0
28/07:00pm 6.0 -9.9 5.4 96 0.3 W 78 102 42 55 - - 0.0
28/06:30pm 6.0 -10.6 5.4 96 0.3 WSW 82 106 44 57 - - 0.0
28/06:00pm 6.0 -11.3 5.1 94 0.4 WSW 85 111 46 60 - - 0.0
28/05:30pm 5.9 -10.0 5.0 94 0.4 W 78 98 42 53 - - 0.0
28/05:00pm 6.4 -7.6 4.4 87 0.9 W 67 91 36 49 - - 0.0
28/04:30pm 6.8 -5.4 3.6 80 1.5 W 57 78 31 42 - - 0.0
28/04:18pm 6.4 -5.9 3.4 81 1.4 W 57 78 31 42 - - 0.0
28/04:00pm 6.7 -5.4 3.1 78 1.6 W 56 72 30 39 - - 0.0
28/03:59pm 6.7 -5.0 3.1 78 1.6 W 54 72 29 39 - - 0.0
28/03:30pm 8.0 -1.8 2.3 67 2.6 W 43 59 23 32 - - 0.0
28/03:00pm 8.5 0.8 2.1 64 2.9 WSW 32 50 17 27 - - 0.0
28/02:30pm 9.8 0.4 0.2 51 4.2 W 39 57 21 31 - - 0.0
28/02:12pm 10.1 -0.5 -2.2 42 5.1 W 44 63 24 34 - - 0.0
28/02:00pm 9.9 0.3 -1.2 46 4.7 W 39 54 21 29 - - 0.0
28/01:40pm 9.2 1.3 0.9 56 3.7 W 32 52 17 28 - - 0.0
28/01:30pm 9.0 3.3 2.6 64 2.9 WSW 22 35 12 19 - - 0.0
28/01:00pm 8.4 -2.7 2.2 65 2.8 WSW 50 72 27 39 - - 0.0
28/12:40pm 8.8 -3.7 1.7 61 3.2 WSW 57 78 31 42 - - 0.0
28/12:30pm 8.5 -3.6 3.4 70 2.4 WSW 56 72 30 39 - - 0.0
28/12:00pm 9.9 -2.0 -0.6 48 4.5 W 52 76 28 41 - - 0.0
28/11:41am 9.0 -2.9 2.3 63 3.0 W 54 74 29 40 - - 0.0
28/11:30am 8.7 -3.6 3.3 69 2.5 W 57 72 31 39 - - 0.0
28/11:19am 8.7 -3.4 4.1 73 2.2 W 57 76 31 41 - - 0.0
28/11:00am 8.2 -3.9 3.1 70 2.3 W 56 69 30 37 - - 0.0
28/10:30am 8.8 -3.3 -1.6 48 4.3 WSW 52 72 28 39 - - 0.0
28/10:23am 8.5 -4.1 -2.7 45 4.5 WSW 54 72 29 39 - - 0.0
28/10:00am 8.5 -4.5 -6.8 33 5.6 W 54 70 29 38 - - 0.0
28/09:57am 8.7 -4.1 -8.8 28 6.1 W 52 70 28 38 - - 0.0
28/09:30am 8.2 -1.9 -6.3 35 5.3 W 39 57 21 31 - - 0.0
28/09:00am 7.4 -1.9 -5.3 40 4.7 W 35 50 19 27 - - 2.4
28/08:30am 7.4 -2.6 -5.3 40 4.7 W 39 50 21 27 - - 2.4
28/08:00am 6.7 -3.6 -4.4 45 4.2 WSW 41 50 22 27 - - 2.4
28/07:30am 5.0 -5.5 -1.0 65 2.4 W 44 54 24 29 - - 2.4
28/07:00am 4.8 -6.1 -1.4 64 2.5 WSW 46 56 25 30 - - 2.4
28/06:30am 4.3 -6.8 0.3 75 1.7 WSW 48 61 26 33 - - 2.4
28/06:00am 4.1 -6.1 1.1 81 1.3 WSW 44 54 24 29 - - 2.4
28/05:30am 4.3 -6.7 0.5 76 1.6 WSW 48 59 26 32 - - 2.4
28/05:00am 4.4 -7.4 0.4 75 1.7 WSW 52 61 28 33 - - 2.4
28/04:30am 4.0 -6.9 1.5 84 1.1 WSW 48 59 26 32 - - 2.4
28/04:00am 4.2 -7.3 2.2 87 0.9 SW 52 65 28 35 - - 2.4
28/03:30am 4.2 -7.9 3.2 93 0.4 WSW 56 67 30 36 - - 2.4
28/03:00am 4.2 -7.8 3.9 98 0.1 WSW 56 67 30 36 - - 2.4
28/02:30am 4.4 -8.1 4.1 98 0.1 WSW 59 69 32 37 - - 2.4
28/02:00am 4.3 -8.6 3.9 97 0.2 WSW 61 72 33 39 - - 2.4
28/01:30am 4.4 -7.6 4.0 97 0.2 WSW 56 70 30 38 - - 2.4
28/01:00am 4.9 -6.6 4.3 96 0.3 WSW 54 69 29 37 - - 2.4
28/12:30am 4.9 -7.0 4.2 95 0.3 WSW 56 78 30 42 - - 2.4
28/12:06am 5.0 -7.5 4.1 94 0.4 WSW 59 78 32 42 - - 2.4
28/12:00am 5.0 -7.0 4.0 93 0.5 W 56 72 30 39 - - 2.4
 
Date/Time
EST
Temp
°C
App
Temp
°C
Dew
Point
°C
Rel
Hum
%
Delta-T
°C
Wind Press
QNH
hPa
Press
MSL
hPa
Rain since
9am
mm
Dir  Spd
km/h
Gust
km/h
Spd
kts
Gust
kts
27/11:53pm 4.9 -7.1 4.0 94 0.4 W 56 76 30 41 - - 2.4
27/11:30pm 4.8 -9.3 3.9 94 0.4 WSW 67 82 36 44 - - 2.4
27/11:10pm 4.7 -9.7 4.1 96 0.3 WSW 69 87 37 47 - - 2.4
27/11:00pm 4.7 -9.9 4.3 97 0.2 WSW 70 82 38 44 - - 2.4
27/10:30pm 4.7 -9.0 4.0 95 0.3 WSW 65 85 35 46 - - 2.4
27/10:00pm 4.6 -9.8 3.9 95 0.3 WSW 69 87 37 47 - - 2.4
27/09:51pm 4.4 -9.7 3.5 94 0.4 WSW 67 87 36 47 - - 2.4
27/09:30pm 4.8 -10.7 3.3 90 0.7 WSW 74 87 40 47 - - 2.4
27/09:00pm 4.1 -11.4 3.2 94 0.4 WSW 74 95 40 51 - - 2.4
27/08:31pm 4.3 -12.3 3.7 96 0.3 WSW 80 98 43 53 - - 2.4
27/08:30pm 4.3 -12.7 3.7 96 0.3 WSW 82 98 44 53 - - 2.4
27/08:10pm 4.3 -12.3 3.6 95 0.3 WSW 80 98 43 53 - - 2.4
27/08:00pm 4.3 -11.9 3.6 95 0.3 WSW 78 95 42 51 - - 2.4
27/07:30pm 3.8 -10.8 3.2 96 0.3 WSW 69 95 37 51 - - 2.4
27/07:00pm 3.5 -9.9 3.2 98 0.1 WSW 63 82 34 44 - - 2.4
27/06:35pm 3.4 -9.3 3.0 97 0.2 WSW 59 78 32 42 - - 2.4
27/06:30pm 3.4 -10.1 3.0 97 0.2 WSW 63 82 34 44 - - 2.4
27/06:00pm 3.1 -10.4 2.8 98 0.1 WSW 63 83 34 45 - - 2.4
27/05:58pm 3.0 -10.5 2.7 98 0.1 WSW 63 83 34 45 - - 2.4
27/05:30pm 2.6 -11.4 2.3 98 0.1 WSW 65 80 35 43 - - 2.4
27/05:24pm 2.5 -10.7 2.2 98 0.1 WSW 61 80 33 43 - - 2.4
27/05:00pm 2.3 -7.7 2.0 98 0.1 WSW 44 59 24 32 - - 2.4
27/04:42pm 2.1 -9.1 1.8 98 0.1 WSW 50 70 27 38 - - 2.4
27/04:30pm 2.0 -10.4 1.7 98 0.1 WSW 56 69 30 37 - - 2.4
27/04:00pm 1.9 -8.2 1.6 98 0.1 WSW 44 61 24 33 - - 2.4
27/03:30pm 1.6 -7.2 1.3 98 0.1 WSW 37 46 20 25 - - 2.4
27/03:00pm 1.4 -6.1 1.0 97 0.2 WSW 30 44 16 24 - - 2.4
27/02:30pm 1.3 -6.2 0.9 97 0.2 WSW 30 39 16 21 - - 2.4
27/02:00pm 1.4 -5.0 0.8 96 0.2 WSW 24 33 13 18 - - 2.4
27/01:30pm 1.7 -4.7 1.1 96 0.2 WSW 24 32 13 17 - - 2.4
27/01:00pm 1.0 -6.6 0.6 97 0.2 WSW 30 39 16 21 - - 2.4
27/12:30pm 0.6 -6.7 0.2 97 0.2 WSW 28 37 15 20 - - 2.2
27/12:00pm 0.1 -5.7 -0.3 97 0.2 WSW 20 30 11 16 - - 2.2
27/11:30am -0.1 -5.8 -0.5 97 0.2 SW 19 26 10 14 - - 1.8
27/11:00am -0.5 -6.8 -0.9 97 0.1 SW 22 30 12 16 - - 1.8
27/10:30am -0.8 -6.8 -1.2 97 0.1 SW 20 26 11 14 - - 1.4
27/10:00am -1.0 -9.3 -1.4 97 0.1 SW 32 37 17 20 - - 0.0
27/09:30am -1.3 -8.1 -1.7 97 0.1 SW 24 30 13 16 - - 0.0
27/09:00am -1.7 -7.8 -2.3 96 0.1 SW 20 24 11 13 - - 0.0
27/08:30am -1.9 -8.8 -2.5 96 0.1 SW 24 30 13 16 - - 0.0
27/08:00am -2.0 -9.3 -2.6 96 0.1 SW 26 32 14 17 - - 0.0
27/07:30am -2.2 -9.5 -2.7 96 0.1 SW 26 30 14 16 - - 0.0
27/07:00am -2.6 -11.1 -3.1 96 0.1 SW 32 35 17 19 - - 0.0
27/06:30am -2.8 -10.9 -3.5 95 0.1 SW 30 35 16 19 - - 0.0
27/06:00am -2.7 -9.3 -3.2 96 0.1 SW 22 30 12 16 - - 0.0
27/05:30am -2.2 -8.7 -2.7 96 0.1 SW 22 30 12 16 - - 0.0
27/05:00am -2.2 -9.5 -2.7 96 0.1 SW 26 30 14 16 - - 0.0
27/04:30am -2.6 -9.9 -3.1 96 0.1 SW 26 32 14 17 - - 0.0
27/04:00am -2.6 -9.9 -3.1 96 0.1 SW 26 32 14 17 - - 0.0
27/03:30am -2.3 -8.8 -2.8 96 0.1 SW 22 28 12 15 - - 0.0
27/03:00am -2.4 -8.6 -2.9 96 0.1 SW 20 24 11 13 - - 0.0
27/02:30am -2.8 -9.0 -3.3 96 0.0 SW 20 24 11 13 - - 0.0
27/02:00am -2.5 -8.7 -3.0 96 0.1 SW 20 24 11 13 - - 0.0
27/01:30am -2.3 -8.5 -2.8 96 0.1 SW 20 26 11 14 - - 0.0
27/01:00am -2.3 -9.2 -2.8 96 0.1 SW 24 32 13 17 - - 0.0
27/12:30am -2.9 -10.7 -3.6 95 0.1 SW 28 32 15 17 - - 0.0
27/12:00am -2.9 -9.9 -3.6 95 0.1 SW 24 30 13 16 - - 0.0
 
Date/Time
EST
Temp
°C
App
Temp
°C
Dew
Point
°C
Rel
Hum
%
Delta-T
°C
Wind Press
QNH
hPa
Press
MSL
hPa
Rain since
9am
mm
Dir  Spd
km/h
Gust
km/h
Spd
kts
Gust
kts
26/11:30pm -2.4 -9.3 -2.9 96 0.1 SW 24 28 13 15 - - 0.0
26/11:00pm -2.8 -9.8 -3.3 96 0.0 SW 24 30 13 16 - - 0.0
26/10:30pm -2.7 -9.3 -3.2 96 0.1 SW 22 28 12 15 - - 0.0
26/10:00pm -2.2 -9.9 -2.7 96 0.1 SW 28 35 15 19 - - 0.0
26/09:30pm -1.8 -9.4 -2.2 97 0.1 SW 28 37 15 20 - - 0.0

Other Formats:

Comma delimited format used in spreadsheet applications
http://www.bom.gov.au/fwo/IDT60801/IDT60801.95979.axf

JavaScript Object Notation format (JSON) in row-major order
http://www.bom.gov.au/fwo/IDT60801/IDT60801.95979.json